Time;durP1;ratioP1;P1;durP2;ratioP2;P2;SDS_P1;SDS_P2;PMS_P1;PMS_P2;Temp;Humidity;BMP_temperature;BMP_pressure;BME280_temperature;BME280_humidity;BME280_pressure;Samples;Min_cycle;Max_cycle;Signal;HPM_P1;HPM_P2
2022/05/15 00:00:51;;;;;;;25.38;7.20;;;9.50;99.90;;;;;;5127430;28;20184;-74
2022/05/15 00:03:20;;;;;;;18.30;6.07;;;9.40;99.90;;;;;;5125825;28;20122;-77
2022/05/15 00:05:54;;;;;;;17.98;5.65;;;9.40;99.90;;;;;;5108328;28;20526;-74
2022/05/15 00:08:20;;;;;;;26.85;6.18;;;9.40;99.90;;;;;;5108219;28;20051;-75
2022/05/15 00:10:46;;;;;;;18.08;5.00;;;9.30;99.90;;;;;;5107169;28;20153;-74
2022/05/15 00:13:12;;;;;;;22.23;6.00;;;9.30;99.90;;;;;;5126927;28;20044;-74
2022/05/15 00:15:39;;;;;;;17.20;5.65;;;9.30;99.90;;;;;;5125425;28;20044;-75
2022/05/15 00:18:06;;;;;;;19.98;6.72;;;9.30;99.90;;;;;;5108614;27;20051;-74
2022/05/15 00:20:32;;;;;;;20.75;5.78;;;9.20;99.90;;;;;;5093854;27;20460;-77
2022/05/15 00:22:59;;;;;;;13.75;5.32;;;9.20;99.90;;;;;;5130766;27;20121;-75
2022/05/15 00:25:25;;;;;;;14.13;5.75;;;9.20;99.90;;;;;;5112273;27;20061;-75
2022/05/15 00:27:51;;;;;;;21.95;5.45;;;9.20;99.90;;;;;;5129357;27;20468;-75
2022/05/15 00:30:18;;;;;;;19.27;5.47;;;9.10;99.90;;;;;;5095225;27;20051;-75
2022/05/15 00:32:44;;;;;;;17.58;5.18;;;9.10;99.90;;;;;;5093521;27;20075;-75
2022/05/15 00:35:10;;;;;;;15.35;5.32;;;9.10;99.90;;;;;;5095221;27;20113;-75
2022/05/15 00:37:36;;;;;;;24.42;6.68;;;9.10;99.90;;;;;;5113716;27;20475;-75
2022/05/15 00:40:03;;;;;;;21.55;6.03;;;9.00;99.90;;;;;;5082225;27;20058;-76
2022/05/15 00:42:28;;;;;;;17.05;5.10;;;9.00;99.90;;;;;;5115603;27;20498;-75
2022/05/15 00:44:54;;;;;;;19.05;5.35;;;9.00;99.90;;;;;;5111592;27;20118;-75
2022/05/15 00:47:20;;;;;;;13.65;5.65;;;9.00;99.90;;;;;;5111618;27;20038;-74
2022/05/15 00:49:47;;;;;;;19.42;6.43;;;9.80;99.90;;;;;;5110038;27;20075;-75
2022/05/15 00:52:16;;;;;;;21.75;6.70;;;9.00;99.90;;;;;;5095821;27;20043;-74
2022/05/15 00:54:53;;;;;;;20.85;6.50;;;9.10;99.90;;;;;;5129752;27;20049;-75
2022/05/15 00:57:33;;;;;;;17.85;5.53;;;8.90;99.90;;;;;;5094666;27;20440;-74
2022/05/15 01:00:24;;;;;;;18.40;5.75;;;8.90;99.90;;;;;;5129918;27;20043;-75
2022/05/15 01:03:03;;;;;;;19.67;5.43;;;8.90;99.90;;;;;;5128755;27;20043;-75
2022/05/15 01:05:31;;;;;;;8.70;4.60;;;8.90;99.90;;;;;;5129932;27;20118;-75
2022/05/15 01:07:56;;;;;;;17.80;5.38;;;8.80;99.90;;;;;;5093793;27;20343;-76
2022/05/15 01:10:22;;;;;;;15.10;4.82;;;8.80;99.90;;;;;;5128626;27;20343;-76
2022/05/15 01:12:49;;;;;;;20.15;5.22;;;8.80;99.90;;;;;;5111459;27;20051;-76
2022/05/15 01:15:20;;;;;;;17.88;4.28;;;8.70;99.90;;;;;;5128252;27;20046;-75
2022/05/15 01:17:46;;;;;;;13.73;4.63;;;8.70;99.90;;;;;;5129414;27;20063;-75
2022/05/15 01:20:15;;;;;;;16.75;4.78;;;8.70;99.90;;;;;;5110256;27;20039;-76
2022/05/15 01:22:41;;;;;;;16.88;4.03;;;8.70;99.90;;;;;;5129672;27;20043;-75
2022/05/15 01:25:13;;;;;;;13.02;4.40;;;8.70;99.90;;;;;;5110465;27;20047;-75
2022/05/15 01:27:42;;;;;;;9.20;3.88;;;8.70;99.90;;;;;;5128535;27;20465;-75
2022/05/15 01:30:08;;;;;;;17.15;4.57;;;8.70;99.90;;;;;;5110801;27;20133;-76
2022/05/15 01:32:34;;;;;;;14.95;4.38;;;8.70;99.90;;;;;;5109631;27;20043;-75
2022/05/15 01:35:00;;;;;;;17.67;4.55;;;8.70;99.90;;;;;;5076921;27;20054;-75
2022/05/15 01:37:25;;;;;;;16.50;5.30;;;8.60;99.90;;;;;;5109729;27;20039;-75
2022/05/15 01:39:51;;;;;;;15.13;5.05;;;8.60;99.90;;;;;;5110410;27;20126;-76
2022/05/15 01:42:16;;;;;;;19.77;5.63;;;8.90;99.90;;;;;;5093292;27;20039;-75
2022/05/15 01:44:42;;;;;;;21.50;5.43;;;8.60;99.90;;;;;;5092291;27;20043;-75
2022/05/15 01:47:08;;;;;;;17.38;4.90;;;8.60;99.90;;;;;;5110769;27;20050;-75
2022/05/15 01:49:34;;;;;;;15.98;4.65;;;8.70;99.90;;;;;;5109255;27;20043;-76
2022/05/15 01:51:59;;;;;;;16.58;4.72;;;8.60;99.90;;;;;;5110811;27;20039;-76
2022/05/15 01:54:25;;;;;;;23.88;5.82;;;8.60;99.90;;;;;;5127927;27;20039;-75
2022/05/15 01:56:50;;;;;;;11.95;4.13;;;8.60;99.90;;;;;;5093167;27;20047;-75
2022/05/15 01:59:17;;;;;;;16.58;4.45;;;8.50;99.90;;;;;;5110032;27;20108;-75
2022/05/15 02:01:43;;;;;;;24.20;5.28;;;9.10;99.90;;;;;;5109546;27;20247;-75
2022/05/15 02:04:08;;;;;;;16.27;5.05;;;8.60;99.90;;;;;;5110602;27;20511;-75
2022/05/15 02:06:35;;;;;;;18.17;4.85;;;8.50;99.90;;;;;;5108455;27;20526;-76
2022/05/15 02:09:02;;;;;;;14.50;4.65;;;8.50;99.90;;;;;;5093134;27;20043;-77
2022/05/15 02:11:28;;;;;;;19.10;5.30;;;8.40;99.90;;;;;;5075346;27;20051;-76
2022/05/15 02:13:54;;;;;;;15.27;4.72;;;8.40;99.90;;;;;;5110163;27;20043;-76
2022/05/15 02:16:19;;;;;;;14.88;3.75;;;8.40;99.90;;;;;;5092788;27;20478;-76
2022/05/15 02:18:45;;;;;;;16.35;5.28;;;8.40;99.90;;;;;;5071863;28;20062;-78
2022/05/15 02:21:11;;;;;;;16.58;4.65;;;8.30;99.90;;;;;;5089352;28;20052;-78
2022/05/15 02:23:37;;;;;;;13.20;4.43;;;8.30;99.90;;;;;;5087963;28;20051;-78
2022/05/15 02:26:02;;;;;;;12.05;4.25;;;8.30;99.90;;;;;;5072945;28;20047;-76
2022/05/15 02:28:28;;;;;;;12.93;4.85;;;8.20;99.90;;;;;;5105727;28;20055;-76
2022/05/15 02:30:54;;;;;;;25.02;5.20;;;8.20;99.90;;;;;;5089677;28;20055;-77
2022/05/15 02:33:20;;;;;;;11.80;4.65;;;8.20;99.90;;;;;;5105718;28;20553;-77
2022/05/15 02:35:46;;;;;;;13.77;4.40;;;8.20;99.90;;;;;;5072952;28;20372;-76
2022/05/15 02:38:12;;;;;;;21.55;5.13;;;8.10;99.90;;;;;;5107606;28;20069;-76
2022/05/15 02:40:38;;;;;;;19.77;4.50;;;8.10;99.90;;;;;;5106743;28;20043;-76
2022/05/15 02:43:04;;;;;;;12.60;4.50;;;8.10;99.90;;;;;;5107105;28;20047;-76
2022/05/15 02:45:29;;;;;;;15.32;4.32;;;8.10;99.90;;;;;;5106389;28;20040;-77
2022/05/15 02:47:55;;;;;;;18.08;4.25;;;8.00;99.90;;;;;;5107533;28;20119;-77
2022/05/15 02:53:07;;;;;;;9.55;3.60;;;8.00;99.90;;;;;;5104766;28;20056;-76
2022/05/15 02:55:33;;;;;;;21.40;5.25;;;7.90;99.90;;;;;;5106320;28;20471;-77
2022/05/15 02:57:59;;;;;;;17.58;4.07;;;7.90;99.90;;;;;;5088318;28;20122;-77
2022/05/15 03:00:27;;;;;;;19.48;4.95;;;7.90;99.90;;;;;;5107227;28;20042;-77
2022/05/15 03:02:52;;;;;;;15.00;3.85;;;7.90;99.90;;;;;;5107297;27;20055;-78
2022/05/15 03:05:20;;;;;;;18.60;4.07;;;7.90;99.90;;;;;;5109740;28;20054;-77
2022/05/15 03:07:47;;;;;;;13.35;4.25;;;7.90;99.90;;;;;;5110810;28;20047;-77
2022/05/15 03:10:15;;;;;;;13.25;3.78;;;7.80;99.90;;;;;;5106175;28;20123;-77
2022/05/15 03:12:41;;;;;;;15.68;4.20;;;8.60;99.90;;;;;;5106142;28;20143;-77
2022/05/15 03:15:08;;;;;;;12.23;3.88;;;7.80;99.90;;;;;;5104120;28;20104;-78
2022/05/15 03:17:35;;;;;;;15.68;3.75;;;7.80;99.90;;;;;;5105729;28;20047;-78
2022/05/15 03:20:05;;;;;;;14.63;4.00;;;7.80;99.90;;;;;;5104800;28;20047;-77
2022/05/15 03:22:31;;;;;;;9.15;3.88;;;7.80;99.90;;;;;;5088060;28;20046;-78
2022/05/15 03:24:56;;;;;;;13.70;3.58;;;7.70;99.90;;;;;;5105348;28;20454;-78
2022/05/15 03:27:22;;;;;;;13.77;4.03;;;7.70;99.90;;;;;;5105716;28;20279;-77
2022/05/15 03:29:48;;;;;;;18.98;4.80;;;7.70;99.90;;;;;;5107280;28;20101;-77
2022/05/15 03:32:13;;;;;;;13.95;3.70;;;8.40;99.90;;;;;;5103928;28;20043;-77
2022/05/15 03:34:41;;;;;;;14.13;4.28;;;7.70;99.90;;;;;;5107069;28;20139;-77
2022/05/15 03:37:07;;;;;;;9.57;3.47;;;7.60;99.90;;;;;;5106044;28;20047;-77
2022/05/15 03:39:32;;;;;;;13.02;3.88;;;7.60;99.90;;;;;;5087969;28;20116;-78
2022/05/15 03:41:59;;;;;;;14.15;3.15;;;7.60;99.90;;;;;;5088574;28;20127;-78
2022/05/15 03:44:25;;;;;;;13.32;3.78;;;7.50;99.90;;;;;;5104338;28;20044;-78
2022/05/15 03:46:51;;;;;;;15.30;3.72;;;7.60;99.90;;;;;;5105285;28;20117;-78
2022/05/15 03:49:17;;;;;;;11.10;3.70;;;8.20;99.90;;;;;;5103727;28;20055;-78
2022/05/15 03:51:43;;;;;;;9.27;3.10;;;7.50;99.90;;;;;;5105528;28;20044;-78
2022/05/15 03:54:09;;;;;;;10.02;3.85;;;7.50;99.90;;;;;;5073367;28;20062;-78
2022/05/15 03:56:51;;;;;;;13.07;3.70;;;7.60;99.90;;;;;;5091996;28;20047;-77
2022/05/15 03:59:23;;;;;;;20.52;4.40;;;7.60;99.90;;;;;;5110869;28;20043;-77
2022/05/15 04:01:49;;;;;;;10.20;3.27;;;7.60;99.90;;;;;;5109339;28;20035;-77
2022/05/15 04:04:16;;;;;;;16.23;4.38;;;7.60;99.90;;;;;;5110619;28;20777;-77
2022/05/15 04:06:42;;;;;;;14.55;4.43;;;7.60;99.90;;;;;;5109562;28;20043;-76
2022/05/15 04:09:08;;;;;;;15.40;3.97;;;7.60;99.90;;;;;;5110614;28;20035;-77
2022/05/15 04:11:33;;;;;;;14.50;3.65;;;7.60;99.90;;;;;;5108965;28;20479;-77
2022/05/15 04:14:00;;;;;;;10.75;3.38;;;7.50;99.90;;;;;;5109119;28;20039;-78
2022/05/15 04:16:26;;;;;;;14.50;3.85;;;8.00;99.90;;;;;;5093006;27;20224;-78
2022/05/15 04:18:51;;;;;;;17.20;4.47;;;7.70;99.90;;;;;;5111238;27;20121;-77
2022/05/15 04:21:17;;;;;;;22.10;4.53;;;7.70;99.90;;;;;;5131481;27;20039;-78
2022/05/15 04:23:43;;;;;;;16.50;4.35;;;7.80;99.90;;;;;;5078638;27;20402;-78
2022/05/15 04:26:09;;;;;;;22.33;4.43;;;7.90;99.90;;;;;;5112818;27;20051;-77
2022/05/15 04:28:35;;;;;;;14.15;3.85;;;7.90;99.90;;;;;;5112183;27;20043;-77
2022/05/15 04:31:02;;;;;;;17.98;3.78;;;7.90;99.90;;;;;;5094128;27;20047;-77
2022/05/15 04:33:28;;;;;;;13.93;4.32;;;8.00;99.90;;;;;;5112371;27;20130;-77
2022/05/15 04:35:55;;;;;;;16.35;3.97;;;8.10;99.90;;;;;;5129149;27;20039;-77
2022/05/15 04:38:20;;;;;;;17.40;3.83;;;8.10;99.90;;;;;;5095562;27;20054;-77
2022/05/15 04:40:46;;;;;;;21.80;3.90;;;8.20;99.90;;;;;;5110975;27;20031;-77
2022/05/15 04:43:12;;;;;;;16.63;3.90;;;8.30;99.90;;;;;;5095327;27;20122;-77
2022/05/15 04:45:38;;;;;;;21.23;4.57;;;8.40;99.90;;;;;;5094704;27;20081;-77
2022/05/15 04:48:04;;;;;;;23.73;5.20;;;8.50;99.90;;;;;;5129590;27;20035;-77
2022/05/15 04:50:29;;;;;;;22.45;5.45;;;8.60;99.90;;;;;;5112175;27;20051;-77
2022/05/15 04:52:55;;;;;;;22.55;4.80;;;8.70;99.90;;;;;;5110572;27;20092;-77
2022/05/15 04:55:20;;;;;;;17.90;4.78;;;8.80;99.90;;;;;;5094509;27;20047;-77
2022/05/15 04:57:46;;;;;;;21.98;4.47;;;8.90;99.90;;;;;;5110636;27;20317;-76
2022/05/15 05:00:17;;;;;;;21.27;4.88;;;9.00;99.90;;;;;;5111965;27;20043;-78
2022/05/15 05:02:43;;;;;;;14.45;5.18;;;9.10;99.90;;;;;;5111281;27;20055;-77
2022/05/15 05:05:09;;;;;;;11.75;4.63;;;9.30;99.90;;;;;;5110245;27;20486;-77
2022/05/15 05:07:35;;;;;;;19.33;4.65;;;9.30;99.90;;;;;;5111888;27;20126;-77
2022/05/15 05:10:00;;;;;;;22.60;4.50;;;9.40;99.90;;;;;;5093018;27;20078;-77
2022/05/15 05:12:26;;;;;;;19.15;4.38;;;9.40;99.90;;;;;;5111811;27;20051;-77
2022/05/15 05:14:52;;;;;;;20.52;4.40;;;9.50;99.90;;;;;;5128206;27;20486;-77
2022/05/15 05:17:17;;;;;;;19.92;4.68;;;9.80;99.90;;;;;;5129965;27;20047;-77
2022/05/15 05:19:43;;;;;;;19.15;4.88;;;9.70;99.90;;;;;;5129408;27;20446;-77
2022/05/15 05:22:09;;;;;;;17.30;4.75;;;9.80;99.90;;;;;;5093952;27;20047;-77
2022/05/15 05:24:35;;;;;;;13.48;3.92;;;10.70;99.90;;;;;;5129576;27;20522;-77
2022/05/15 05:27:01;;;;;;;14.38;4.55;;;10.00;99.90;;;;;;5109495;27;20084;-77
2022/05/15 05:29:26;;;;;;;17.15;4.00;;;10.10;99.90;;;;;;5111758;27;20041;-77
2022/05/15 05:31:52;;;;;;;19.88;5.05;;;10.20;99.90;;;;;;5128499;27;20035;-77
2022/05/15 05:34:18;;;;;;;15.57;3.95;;;10.30;99.90;;;;;;5111102;27;20476;-77
2022/05/15 05:36:44;;;;;;;22.88;4.75;;;10.40;99.90;;;;;;5110160;27;20043;-77
2022/05/15 05:39:10;;;;;;;18.00;3.97;;;11.30;99.90;;;;;;5110471;27;20043;-77
2022/05/15 05:41:36;;;;;;;15.82;4.53;;;10.50;99.90;;;;;;5129341;27;20114;-77
2022/05/15 05:44:02;;;;;;;16.10;4.45;;;10.70;99.90;;;;;;5127569;27;20122;-77
2022/05/15 05:46:28;;;;;;;28.83;5.15;;;10.80;99.90;;;;;;5129610;27;20079;-77
2022/05/15 05:48:54;;;;;;;22.35;5.28;;;11.10;99.90;;;;;;5092822;27;20047;-77
2022/05/15 05:51:21;;;;;;;21.83;5.38;;;11.00;99.90;;;;;;5110543;27;20047;-77
2022/05/15 05:53:47;;;;;;;17.65;4.18;;;11.10;99.90;;;;;;5110069;27;20567;-77
2022/05/15 05:56:13;;;;;;;27.17;4.60;;;11.20;99.90;;;;;;5110256;27;20288;-77
2022/05/15 05:58:38;;;;;;;15.88;3.38;;;11.40;99.90;;;;;;5094590;27;20251;-77
2022/05/15 06:01:04;;;;;;;17.88;4.80;;;11.40;99.90;;;;;;5129057;27;20035;-77
2022/05/15 06:06:15;;;;;;;14.88;4.22;;;11.60;99.90;;;;;;5109229;27;20104;-76
2022/05/15 06:08:42;;;;;;;15.75;3.53;;;11.70;99.90;;;;;;5110217;27;20043;-75
2022/05/15 06:11:09;;;;;;;19.27;5.10;;;11.80;99.90;;;;;;5110054;27;20111;-74
2022/05/15 06:13:35;;;;;;;20.88;4.60;;;11.90;99.90;;;;;;5075111;27;20047;-76
2022/05/15 06:16:01;;;;;;;19.73;4.90;;;12.10;99.90;;;;;;5109941;27;20078;-76
2022/05/15 06:18:27;;;;;;;20.23;4.30;;;12.20;99.90;;;;;;5088069;28;20058;-76
2022/05/15 06:20:53;;;;;;;12.52;3.97;;;12.30;99.90;;;;;;5106945;28;20122;-77
2022/05/15 06:23:19;;;;;;;15.68;4.20;;;12.40;99.90;;;;;;5088569;28;20054;-76
2022/05/15 06:25:45;;;;;;;18.98;5.07;;;12.80;99.90;;;;;;5106638;28;20100;-76
2022/05/15 06:28:11;;;;;;;17.50;4.32;;;12.60;99.90;;;;;;5106261;28;20478;-76
2022/05/15 06:30:37;;;;;;;18.63;4.05;;;12.70;99.90;;;;;;5105702;28;20439;-76
2022/05/15 06:33:04;;;;;;;24.58;4.93;;;13.20;99.90;;;;;;5106343;28;20783;-76
2022/05/15 06:35:30;;;;;;;14.15;4.30;;;12.90;99.90;;;;;;5087887;28;20047;-76
2022/05/15 06:38:02;;;;;;;17.13;4.30;;;13.00;99.90;;;;;;5089482;28;20582;-77
2022/05/15 06:40:31;;;;;;;14.82;4.95;;;13.10;99.90;;;;;;5105963;28;20047;-76
2022/05/15 06:42:59;;;;;;;12.05;4.13;;;13.20;99.90;;;;;;5105970;28;20032;-76
2022/05/15 06:45:27;;;;;;;16.10;3.63;;;13.30;99.90;;;;;;5089784;28;20130;-76
2022/05/15 06:47:53;;;;;;;20.67;4.32;;;13.50;99.90;;;;;;5106442;28;20039;-75
2022/05/15 06:50:19;;;;;;;12.70;3.25;;;13.50;99.90;;;;;;5089602;28;20053;-75
2022/05/15 06:52:45;;;;;;;20.40;4.65;;;13.70;99.90;;;;;;5103720;28;20052;-77
2022/05/15 06:55:17;;;;;;;12.95;3.55;;;13.80;99.90;;;;;;5107945;28;20035;-76
2022/05/15 06:57:47;;;;;;;14.07;4.80;;;13.90;99.90;;;;;;5105270;28;20426;-76
2022/05/15 07:00:33;;;;;;;24.35;5.05;;;14.00;99.90;;;;;;5106863;28;20051;-76
2022/05/15 07:02:58;;;;;;;15.18;4.05;;;14.20;99.90;;;;;;5105576;28;20141;-77
2022/05/15 07:05:28;;;;;;;13.45;3.55;;;14.30;99.90;;;;;;5103918;28;20036;-76
2022/05/15 07:07:54;;;;;;;16.35;3.60;;;14.40;99.90;;;;;;5105673;28;20047;-76
2022/05/15 07:10:21;;;;;;;13.30;3.60;;;14.50;99.90;;;;;;5104332;28;20049;-75
2022/05/15 07:12:47;;;;;;;13.20;3.42;;;14.60;99.90;;;;;;5106222;28;20062;-75
2022/05/15 07:15:13;;;;;;;15.38;3.17;;;14.80;99.90;;;;;;5106507;28;20040;-75
2022/05/15 07:17:38;;;;;;;18.40;3.70;;;14.90;99.90;;;;;;5104719;28;20040;-76
2022/05/15 07:20:05;;;;;;;16.45;3.15;;;15.10;99.90;;;;;;5107181;28;20548;-76
2022/05/15 07:22:31;;;;;;;21.27;3.92;;;15.10;99.90;;;;;;5105607;28;20027;-76
2022/05/15 07:24:56;;;;;;;16.85;3.53;;;15.20;99.90;;;;;;5107096;28;20036;-75
2022/05/15 07:27:22;;;;;;;13.82;3.20;;;15.30;99.90;;;;;;5105617;28;20032;-72
2022/05/15 07:29:48;;;;;;;15.15;3.15;;;15.40;99.90;;;;;;5106308;28;20108;-72
2022/05/15 07:32:14;;;;;;;15.75;3.78;;;15.50;99.90;;;;;;5106316;28;20464;-72
2022/05/15 07:34:40;;;;;;;18.83;3.25;;;15.60;99.90;;;;;;5088167;28;20053;-72
2022/05/15 07:37:07;;;;;;;12.25;3.60;;;15.70;99.90;;;;;;5106796;28;20039;-72
2022/05/15 07:39:33;;;;;;;15.60;3.33;;;15.80;99.90;;;;;;5105604;28;20582;-72
2022/05/15 07:41:59;;;;;;;15.98;3.30;;;15.90;99.90;;;;;;5106968;28;20036;-74
2022/05/15 07:44:24;;;;;;;16.17;3.17;;;16.10;99.90;;;;;;5105675;28;20075;-76
2022/05/15 07:46:50;;;;;;;14.77;2.70;;;16.20;99.90;;;;;;5107405;28;20058;-75
2022/05/15 07:49:16;;;;;;;18.73;3.70;;;16.40;99.90;;;;;;5106318;28;20101;-76
2022/05/15 07:51:44;;;;;;;15.73;3.10;;;16.50;99.90;;;;;;5106559;28;20228;-75
2022/05/15 07:54:16;;;;;;;13.52;3.05;;;16.50;99.90;;;;;;5105061;28;20050;-74
2022/05/15 07:56:42;;;;;;;15.88;2.95;;;16.60;99.90;;;;;;5103751;28;20079;-75
2022/05/15 07:59:08;;;;;;;13.52;2.63;;;16.80;99.90;;;;;;5105400;28;20047;-75
2022/05/15 08:01:34;;;;;;;11.43;2.70;;;16.90;99.90;;;;;;5087028;28;20050;-74
2022/05/15 08:04:00;;;;;;;11.02;2.55;;;17.00;99.90;;;;;;5106508;28;20191;-75
2022/05/15 08:09:10;;;;;;;17.13;2.85;;;17.50;99.90;;;;;;5103610;28;20047;-74
2022/05/15 08:11:37;;;;;;;13.07;2.38;;;17.40;99.90;;;;;;5105529;28;20470;-73
2022/05/15 08:14:05;;;;;;;14.55;3.92;;;17.50;99.90;;;;;;5104575;28;20052;-74
2022/05/15 08:16:35;;;;;;;18.52;3.35;;;17.60;99.90;;;;;;5073233;28;20050;-74
2022/05/15 08:24:31;;;;;;;12.85;3.22;;;18.20;99.90;;;;;;5127189;28;20130;-74
2022/05/15 08:26:56;;;;;;;14.18;3.05;;;18.50;99.90;;;;;;5125740;28;20114;-74
2022/05/15 08:29:22;;;;;;;12.38;2.97;;;18.90;99.90;;;;;;5108412;28;20050;-73
2022/05/15 08:31:48;;;;;;;13.10;2.90;;;19.40;99.90;;;;;;5125953;28;20134;-74
2022/05/15 08:34:14;;;;;;;15.05;2.63;;;19.60;99.90;;;;;;5126381;28;20043;-72
2022/05/15 08:36:42;;;;;;;13.73;3.00;;;19.80;99.90;;;;;;5108814;28;20197;-73
2022/05/15 08:39:09;;;;;;;13.00;2.35;;;19.90;99.90;;;;;;5107104;27;20043;-74
2022/05/15 08:41:45;;;;;;;11.88;2.75;;;20.00;99.90;;;;;;5093919;27;20325;-73
2022/05/15 08:44:21;;;;;;;7.88;2.10;;;20.00;99.90;;;;;;5110440;27;20058;-73
2022/05/15 08:47:13;;;;;;;12.35;2.55;;;20.10;99.90;;;;;;5111331;27;20047;-73
2022/05/15 08:49:43;;;;;;;9.95;1.85;;;20.20;99.90;;;;;;5130444;27;20043;-73
2022/05/15 08:52:18;;;;;;;8.43;1.77;;;20.30;99.90;;;;;;5129141;27;20448;-73
2022/05/15 08:54:55;;;;;;;12.48;2.20;;;20.30;99.90;;;;;;5111917;27;20043;-73
2022/05/15 08:57:33;;;;;;;11.13;2.72;;;20.40;99.90;;;;;;5129494;27;20180;-73
2022/05/15 09:00:01;;;;;;;6.43;1.63;;;20.50;99.90;;;;;;5094162;27;20062;-73
2022/05/15 09:02:26;;;;;;;11.93;2.70;;;20.50;99.90;;;;;;5111954;27;20042;-73
2022/05/15 09:04:53;;;;;;;8.05;2.40;;;20.50;99.40;;;;;;5110196;27;20040;-72
2022/05/15 09:07:47;;;;;;;12.23;2.35;;;20.30;99.40;;;;;;5111653;27;20603;-72
2022/05/15 09:10:22;;;;;;;11.18;2.15;;;20.20;97.70;;;;;;5110259;27;20118;-73
2022/05/15 09:12:57;;;;;;;9.75;2.47;;;20.20;98.60;;;;;;5110684;27;20043;-74
2022/05/15 09:15:28;;;;;;;8.30;1.80;;;20.10;99.60;;;;;;5111349;27;20049;-74
2022/05/15 09:18:02;;;;;;;9.57;2.42;;;20.10;99.10;;;;;;5109949;27;20082;-75
2022/05/15 09:20:39;;;;;;;6.72;1.88;;;20.10;99.70;;;;;;5111763;27;20497;-75
2022/05/15 09:23:16;;;;;;;7.40;2.25;;;20.10;98.90;;;;;;5110907;27;20047;-76
2022/05/15 09:25:49;;;;;;;9.52;2.38;;;20.20;99.70;;;;;;5093231;27;20152;-75
2022/05/15 09:28:15;;;;;;;11.82;2.28;;;20.30;99.90;;;;;;5112449;27;20067;-74
2022/05/15 09:30:47;;;;;;;7.45;1.65;;;20.40;99.90;;;;;;5110713;27;20555;-76
2022/05/15 09:33:21;;;;;;;12.35;2.60;;;20.40;99.30;;;;;;5113833;27;20055;-75
2022/05/15 09:35:47;;;;;;;8.43;2.35;;;20.50;98.10;;;;;;5129997;27;20043;-75
2022/05/15 09:38:29;;;;;;;9.23;2.15;;;20.50;98.50;;;;;;5130527;27;20041;-76
2022/05/15 09:44:06;;;;;;;9.25;1.90;;;20.50;95.30;;;;;;5110438;27;20395;-74
2022/05/15 09:46:32;;;;;;;7.47;2.20;;;20.60;98.20;;;;;;5111103;27;20415;-75
2022/05/15 09:49:01;;;;;;;33.05;3.63;;;20.70;98.10;;;;;;5129185;27;20365;-76
2022/05/15 09:51:48;;;;;;;9.38;2.17;;;20.90;97.40;;;;;;5127882;27;20047;-76
2022/05/15 09:54:36;;;;;;;8.45;1.50;;;21.00;94.10;;;;;;5110860;27;20047;-76
2022/05/15 09:57:18;;;;;;;7.15;1.73;;;21.10;92.70;;;;;;5128535;27;20043;-75
2022/05/15 10:00:00;;;;;;;14.10;2.60;;;21.20;86.90;;;;;;5128874;27;20035;-77
2022/05/15 10:02:38;;;;;;;8.32;1.73;;;21.30;92.20;;;;;;5111168;27;20039;-75
2022/05/15 10:05:11;;;;;;;8.88;2.08;;;21.30;94.10;;;;;;5109417;27;20487;-75
2022/05/15 10:07:46;;;;;;;10.75;2.25;;;21.40;92.90;;;;;;5129748;27;20088;-75
2022/05/15 10:10:17;;;;;;;8.00;2.17;;;21.50;90.60;;;;;;5128694;27;20579;-77
2022/05/15 10:12:45;;;;;;;8.52;2.67;;;21.50;90.30;;;;;;5109628;27;20031;-75
2022/05/15 10:15:12;;;;;;;11.70;2.33;;;21.60;91.90;;;;;;5110814;27;20563;-76
2022/05/15 10:17:52;;;;;;;9.00;2.22;;;21.70;90.80;;;;;;5127528;27;20047;-76
2022/05/15 10:20:22;;;;;;;6.00;1.75;;;21.80;86.10;;;;;;5128876;27;20506;-78
2022/05/15 10:22:54;;;;;;;11.88;1.90;;;21.80;86.90;;;;;;5109721;27;20116;-75
2022/05/15 10:25:34;;;;;;;14.90;2.13;;;21.80;88.40;;;;;;5109162;27;20039;-75
2022/05/15 10:28:38;;;;;;;18.58;2.88;;;22.00;85.30;;;;;;5110759;27;20621;-77
2022/05/15 10:31:19;;;;;;;7.03;1.80;;;22.10;76.60;;;;;;5103696;27;20051;-77
2022/05/15 10:33:51;;;;;;;7.43;2.20;;;22.10;79.70;;;;;;5108921;27;20054;-74
2022/05/15 10:36:38;;;;;;;6.68;1.83;;;22.20;81.90;;;;;;5128313;27;20142;-74
2022/05/15 10:39:20;;;;;;;8.27;2.08;;;22.20;77.10;;;;;;5108807;27;20162;-75
2022/05/15 10:42:14;;;;;;;8.68;2.33;;;22.20;79.30;;;;;;5110094;27;20447;-74
2022/05/15 10:45:17;;;;;;;9.15;1.95;;;22.30;68.00;;;;;;5128342;27;20692;-73
2022/05/15 10:48:12;;;;;;;10.85;2.53;;;22.30;73.60;;;;;;5127071;27;20383;-74
2022/05/15 10:50:55;;;;;;;11.50;2.20;;;22.50;69.90;;;;;;5105421;27;20126;-73
2022/05/15 11:00:11;;;;;;;8.00;1.95;;;22.70;64.00;;;;;;5107991;27;20125;-73
2022/05/15 11:03:02;;;;;;;9.85;2.05;;;22.60;67.60;;;;;;5109015;28;20130;-74
2022/05/15 11:05:38;;;;;;;9.43;1.80;;;22.70;63.30;;;;;;5108622;27;20043;-76
2022/05/15 11:08:19;;;;;;;10.60;1.98;;;22.80;66.70;;;;;;5127084;27;20098;-76
2022/05/15 11:10:52;;;;;;;8.95;2.33;;;22.90;63.80;;;;;;5127647;27;20078;-77
2022/05/15 11:13:52;;;;;;;6.00;1.38;;;23.00;65.70;;;;;;5090530;27;20126;-76
2022/05/15 11:16:29;;;;;;;8.52;1.80;;;23.00;61.30;;;;;;5128763;27;20039;-74
2022/05/15 11:19:12;;;;;;;8.80;1.77;;;23.00;65.40;;;;;;5127761;27;20553;-74
2022/05/15 11:21:59;;;;;;;6.22;1.85;;;23.00;64.00;;;;;;5108489;28;20093;-75
2022/05/15 11:24:38;;;;;;;9.52;2.45;;;23.00;62.70;;;;;;5108833;28;20094;-74
2022/05/15 11:27:27;;;;;;;6.93;1.58;;;23.10;62.60;;;;;;5109087;28;20058;-74
2022/05/15 11:29:56;;;;;;;5.53;1.40;;;23.10;58.90;;;;;;5111106;28;20043;-74
2022/05/15 11:32:42;;;;;;;7.32;1.50;;;23.20;61.80;;;;;;5111979;28;20035;-74
2022/05/15 11:35:16;;;;;;;6.28;1.73;;;23.40;61.20;;;;;;5126128;28;20087;-75
2022/05/15 11:38:05;;;;;;;9.23;1.92;;;23.40;56.90;;;;;;5108378;28;20065;-73
2022/05/15 11:40:45;;;;;;;7.85;1.55;;;23.40;55.20;;;;;;5108822;28;20066;-74
2022/05/15 11:43:55;;;;;;;4.70;1.40;;;23.40;57.80;;;;;;5107725;28;20047;-73
2022/05/15 11:46:21;;;;;;;6.00;1.25;;;23.40;55.70;;;;;;5108501;28;20043;-72
2022/05/15 11:48:53;;;;;;;4.03;1.25;;;23.50;58.30;;;;;;5127438;28;20084;-73
2022/05/15 11:51:29;;;;;;;6.65;1.40;;;23.50;56.80;;;;;;5107467;28;20134;-73
2022/05/15 11:54:06;;;;;;;4.25;1.35;;;23.60;56.30;;;;;;5108786;28;20051;-73
2022/05/15 11:56:41;;;;;;;9.40;1.58;;;23.70;55.70;;;;;;5090842;28;20108;-73
2022/05/15 11:59:16;;;;;;;8.40;2.20;;;23.80;55.50;;;;;;5108207;28;20499;-74
2022/05/15 12:01:54;;;;;;;6.97;1.50;;;23.90;53.70;;;;;;5108725;28;20494;-75
2022/05/15 12:04:34;;;;;;;6.80;1.45;;;23.90;55.00;;;;;;5107068;28;20131;-75
2022/05/15 12:07:00;;;;;;;6.57;1.52;;;23.90;54.60;;;;;;5108785;28;20039;-74
2022/05/15 12:09:32;;;;;;;6.90;1.58;;;23.80;55.50;;;;;;5107791;28;20375;-75
2022/05/15 12:12:23;;;;;;;4.47;1.27;;;23.60;54.50;;;;;;5108220;28;20043;-75
2022/05/15 12:15:08;;;;;;;4.80;1.25;;;23.50;53.50;;;;;;5093394;27;20095;-75
2022/05/15 12:17:43;;;;;;;7.75;1.20;;;23.40;53.80;;;;;;5107703;28;20055;-74
2022/05/15 12:20:35;;;;;;;7.13;1.70;;;23.60;55.80;;;;;;5091738;28;20052;-75
2022/05/15 12:23:05;;;;;;;5.72;2.53;;;23.80;55.50;;;;;;5095721;28;20104;-74
2022/05/15 12:25:36;;;;;;;3.42;1.17;;;23.90;54.00;;;;;;5107507;28;20077;-74
2022/05/15 12:29:03;;;;;;;6.65;1.50;;;24.10;54.70;;;;;;5092518;28;20088;-74
2022/05/15 12:31:06;;;;;;;6.20;1.38;;;24.20;54.10;;;;;;5094263;28;20390;-75
2022/05/15 12:33:40;;;;;;;4.32;1.23;;;24.30;54.80;;;;;;5109003;28;20044;-74
2022/05/15 12:36:15;;;;;;;6.97;3.00;;;24.40;54.20;;;;;;5108859;28;20087;-73
2022/05/15 12:38:49;;;;;;;7.93;1.80;;;24.30;53.00;;;;;;5090555;28;20062;-74
2022/05/15 12:41:32;;;;;;;7.20;1.65;;;24.30;54.30;;;;;;5108272;28;20047;-74
2022/05/15 12:44:01;;;;;;;3.88;1.20;;;24.40;53.90;;;;;;5108375;28;20384;-73
2022/05/15 12:46:30;;;;;;;8.95;1.63;;;24.60;54.40;;;;;;5107473;28;20052;-76
2022/05/15 12:48:55;;;;;;;6.05;1.70;;;24.70;53.40;;;;;;5108525;28;20040;-73
2022/05/15 12:51:44;;;;;;;6.95;1.85;;;24.90;53.40;;;;;;5107131;28;20097;-73
2022/05/15 12:54:32;;;;;;;7.00;1.40;;;25.10;51.50;;;;;;5108940;28;20055;-73
2022/05/15 12:57:05;;;;;;;10.35;1.90;;;25.30;50.60;;;;;;5097370;28;20411;-73
2022/05/15 12:59:35;;;;;;;;;;;25.30;52.30;;;;;;5108024;28;20052;-73
2022/05/15 13:02:30;;;;;;;7.35;2.05;;;25.30;50.10;;;;;;5091522;28;20333;-73
2022/05/15 13:04:58;;;;;;;7.18;1.30;;;25.30;49.90;;;;;;5107712;28;20047;-73
2022/05/15 13:07:25;;;;;;;9.90;2.20;;;25.20;51.10;;;;;;5107455;28;20036;-72
2022/05/15 13:10:05;;;;;;;9.18;1.55;;;25.30;51.00;;;;;;5107739;28;20059;-74
2022/05/15 13:12:31;;;;;;;7.10;1.50;;;25.40;49.90;;;;;;5106773;28;20058;-74
2022/05/15 13:14:58;;;;;;;5.38;1.83;;;25.40;50.20;;;;;;5107978;28;20486;-72
2022/05/15 13:17:35;;;;;;;6.55;1.60;;;25.40;50.50;;;;;;5109054;27;20052;-72
2022/05/15 13:20:12;;;;;;;4.95;1.45;;;25.50;50.60;;;;;;5093879;27;20187;-73
2022/05/15 13:22:38;;;;;;;7.78;1.85;;;25.60;50.20;;;;;;5111146;27;20120;-73